Hauptseite
METAR-TAF:

METAR-TAF

Flughäfen :

Hoorn-a, Niederlande

Bohrplattform

Breite: 52-55-05N, Länge: 4-09-01E, Höhe: 41 m

Beobachtung

Neuester Wetterbericht von vor 28 Minuten, um 09:25 UTC
Wind 17 kt aus Süd/Südost
Temperatur 17°C
Luftfeuchtigkeit 59%
Luftdruck 1026 hPa
Sichtweite 10 km oder mehr

METAR: EHQE 190925Z AUTO 16017KT 9999 NSC 17/09 Q1026 W///H///

Zeit: 11:53 (09:53 UTC)


TAF: fehlend

Wetterbeobachtungen und Prognosen von mehr als 4000 Flughäfen (METAR und TAF Bericht).

Die verfügbaren Stationen werden durch gelbe und rote Markierungen auf der Karte dargestellt.

Führen Sie die Maus auf sie, um den Namen der Station zu sehen.

Darauf klicken, um die Beobachtung von Wetterbeobachtungen und Prognosen zu sehen.

Um die Karte zu ändern : klicken Sie auf den grünen Tasten mit einem schwarzen Kreuz Zum Vergrößern, auf den grünen Button mit einem Gedankenstrich zu verkleinern, oder auf die grünen Pfeile für benachbarte Karten.


METAR-TAF: